TimeEDT,TemperatureF,Dew PointF,Humidity,Sea Level PressureIn,VisibilityMPH,Wind Direction,Wind SpeedMPH,Gust SpeedMPH,PrecipitationIn,Events,Conditions,WindDirDegrees,DateUTC
12:53 AM,71.1,66.9,87,29.97,10.0,NW,4.6,-,N/A,,Scattered Clouds,320,2013-10-15 04:53:00
1:53 AM,70.0,66.9,90,29.96,9.0,NW,3.5,-,N/A,,Partly Cloudy,320,2013-10-15 05:53:00
2:53 AM,70.0,66.9,90,29.95,9.0,NNW,4.6,-,N/A,,Clear,330,2013-10-15 06:53:00
3:53 AM,69.1,66.9,93,29.94,9.0,NNW,4.6,-,N/A,,Clear,330,2013-10-15 07:53:00
4:53 AM,69.1,66.9,93,29.93,7.0,WNW,3.5,-,N/A,,Clear,300,2013-10-15 08:53:00
5:53 AM,68.0,66.9,96,29.94,6.0,NW,4.6,-,N/A,,Clear,310,2013-10-15 09:53:00
6:53 AM,68.0,66.0,93,29.95,5.0,Calm,Calm,-,N/A,,Clear,0,2013-10-15 10:53:00
7:01 AM,66.2,66.2,100,29.95,2.0,Calm,Calm,-,N/A,,Scattered Clouds,0,2013-10-15 11:01:00
7:07 AM,68.0,66.2,94,29.95,0.5,WNW,3.5,-,N/A,Fog,Fog,290,2013-10-15 11:07:00
7:53 AM,69.1,66.9,93,29.96,0.2,NW,3.5,-,N/A,Fog,Fog,310,2013-10-15 11:53:00
8:00 AM,69.8,66.2,88,29.97,0.2,NW,3.5,-,N/A,Fog,Fog,320,2013-10-15 12:00:00
8:53 AM,69.1,68.0,96,29.98,0.2,West,3.5,-,N/A,Fog,Fog,280,2013-10-15 12:53:00
9:53 AM,70.0,69.1,97,29.99,0.2,Calm,Calm,-,N/A,Fog,Fog,0,2013-10-15 13:53:00
10:18 AM,69.8,69.8,100,29.99,0.5,Calm,Calm,-,N/A,Fog,Fog,0,2013-10-15 14:18:00
10:21 AM,71.6,69.8,94,29.99,1.0,WNW,3.5,-,N/A,,Mist,290,2013-10-15 14:21:00
10:46 AM,71.6,69.8,94,29.99,7.0,Calm,Calm,-,N/A,,Overcast,0,2013-10-15 14:46:00
10:53 AM,72.0,70.0,93,29.99,7.0,Calm,Calm,-,N/A,,Overcast,0,2013-10-15 14:53:00
11:53 AM,79.0,69.1,72,29.97,10.0,NNW,4.6,-,N/A,,Overcast,340,2013-10-15 15:53:00
12:53 PM,81.0,70.0,69,29.95,10.0,ESE,4.6,-,N/A,,Overcast,110,2013-10-15 16:53:00
1:53 PM,82.0,69.1,65,29.92,10.0,East,6.9,-,N/A,,Mostly Cloudy,80,2013-10-15 17:53:00
2:53 PM,80.1,66.9,64,29.91,10.0,ENE,6.9,-,N/A,,Overcast,60,2013-10-15 18:53:00
3:53 PM,82.0,68.0,62,29.90,10.0,ENE,5.8,-,N/A,,Scattered Clouds,60,2013-10-15 19:53:00
4:53 PM,80.1,70.0,71,29.90,10.0,NE,3.5,-,N/A,,Overcast,50,2013-10-15 20:53:00
5:53 PM,78.1,70.0,76,29.90,10.0,ENE,4.6,-,N/A,,Scattered Clouds,60,2013-10-15 21:53:00
6:53 PM,73.9,69.1,85,29.91,10.0,Calm,Calm,-,N/A,,Clear,0,2013-10-15 22:53:00
7:53 PM,75.0,69.1,82,29.92,10.0,Calm,Calm,-,N/A,,Clear,0,2013-10-15 23:53:00
8:53 PM,70.0,66.9,90,29.94,9.0,Calm,Calm,-,N/A,,Partly Cloudy,0,2013-10-16 00:53:00
9:53 PM,71.1,68.0,90,29.96,9.0,Calm,Calm,-,N/A,,Clear,0,2013-10-16 01:53:00
10:53 PM,68.0,66.0,93,29.96,6.0,Calm,Calm,-,N/A,,Clear,0,2013-10-16 02:53:00
11:53 PM,69.1,66.9,93,29.96,5.0,Calm,Calm,-,N/A,,Clear,0,2013-10-16 03:53:00